Bozeman, MT

6:49 PM MST on December 28, 2014 (GMT -0700)
Bon-Ton | Change Station
CLOSE
Current Station
Personal Weather Station
Location: Bozeman, MT
Elevation: 4884 ft
Nearby Weather Stations
Active Advisory: Winter Weather Advisory

Elev 4884 ft 45.67 °N, 111.04 °W | Updated 5 seconds ago

Snow
Snow
16.9 °F
Feels Like 17 °F
N
0.0
Wind Variable Wind from West
Gusts 5.0 mph

Today
High -- | Low -- °F
--% Chance of Precip.
Yesterday
High -- | Low -- °F
Precip. -- in
8:04 AM 4:47 PM
First Quarter, 53% visible
Pressure 30.09 in
Visibility 2.0 miles
Clouds Overcast 2200 ft
Windchill 17 °F
Dew Point 14 °F
Humidity 87%
Rainfall 0.00 in
Snow Depth Not available.
UV 0.0 out of 12
Pollen .10 out of 12
Air Quality Not available.
Flu Activity Not available.
SPECI KBZN 290139Z 20010KT 2SM -SN BR OVC022 M09/M11 A3009 RMK AO2 P0000 T10891111 $

More Conditions Fewer Conditions

Pressure 30.09 in
Visibility 2.0 miles
Clouds Overcast 2200 ft
Windchill 17 °F
Dew Point 14 °F
Humidity 87%
Rainfall 0.00 in
Snow Depth Not available.
UV 0.0 out of 12
Pollen .10 out of 12
Air Quality Not available.
Flu Activity Not available.
SPECI KBZN 290139Z 20010KT 2SM -SN BR OVC022 M09/M11 A3009 RMK AO2 P0000 T10891111 $

More Conditions Fewer Conditions

10-Day Weather Forecast

Almanac

Astronomy

Dec. 28, 2014 Rise Set
Actual Time
Civil Twilight
Nautical Twilight
Astronomical Twilight
Moon
Length of Visible Light
Length of Day
Tomorrow will be .
, % of the Moon is Illuminated

Today's Extremes

State Highs State Lows

Community

WunderPhotos

Upload Photos

1,781,489 photos uploaded!

WunderBlogs® & News

Nearby

Air Quality

  Air Quality AQ Index Pollutant
Not available.

Snow Depth

Station Depth Elevation

Earthquake Activity

City Distance Mag. Time & Date
Minimum magnitude displayed is 2.5.

Coastal Water Temperatures

Place Temperature

Nearby Weather Stations